Alarka, North Carolina
Current Conditions -  °F | °C
As of 4:35 PM on Saturday 25 Oct 2014 (Local Time) from KGKT Reporting Station
Overcast Overcast  
Wind Chill: 70°   Ceiling: 5000
Heat Index: 70°   Visibility: 10mi
Dew Point: 45°   Wind: 5mph
Humidity: 40%   Direction: 310°NW
Pressure: 30.01"   Gusts: NA
Location:  35.5051°N, 83.603°W
Report Text: KGKT 252035Z AUTO 31004KT 10SM BKN050 OVC075 21/07 A3001 RMK
Loading
Personal Weather Stations






























Interactive Weather Map
Tropical Storm Tracking
New forecast layout! Learn more

10-Day Weather Forecast

Advertisements
Track Severe Weather on mobile